This is the latest recevied weather packets stored in our database for station/object K5RWS. If no packets are shown the sender has not sent any weather packets the latest 10 day(s).
| Time | Temp. | Humidity | Pressure | Rain* | Wind** | Luminosity | Snow |
|---|---|---|---|---|---|---|---|
| 1777749759 | 16.67° C | 37% | 1025 hPa | 0 mm | - | 793 W/m² | - |
| 1777749455 | 16.67° C | 38% | 1025.1 hPa | 0 mm | - | 520 W/m² | - |
| 1777749153 | 17.78° C | 35% | 1025.2 hPa | 0 mm | - | 786 W/m² | - |
| 1777748850 | 17.22° C | 36% | 1025.2 hPa | 0 mm | - | 779 W/m² | - |
| 1777748548 | 16.67° C | 38% | 1025.2 hPa | 0 mm | - | 786 W/m² | - |
| 1777748247 | 17.22° C | 36% | 1025.4 hPa | 0 mm | - | 799 W/m² | - |
| 1777747944 | 16.11° C | 39% | 1025.6 hPa | 0 mm | - | 807 W/m² | - |
| 1777747641 | 16.11° C | 38% | 1025.6 hPa | 0 mm | - | 630 W/m² | - |
| 1777747336 | 16.11° C | 38% | 1025.6 hPa | 0 mm | - | 688 W/m² | - |
| 1777747033 | 16.11° C | 37% | 1025.7 hPa | 0 mm | - | 749 W/m² | - |
| 1777746729 | 15.56° C | 39% | 1025.8 hPa | 0 mm | - | 778 W/m² | - |
| 1777746424 | 16.11° C | 38% | 1025.9 hPa | 0 mm | - | 799 W/m² | - |
| 1777746120 | 16.11° C | 37% | 1025.8 hPa | 0 mm | - | 784 W/m² | - |
| 1777745817 | 16.67° C | 40% | 1025.8 hPa | 0 mm | - | 760 W/m² | - |
| 1777745516 | 17.22° C | 38% | 1025.9 hPa | 0 mm | - | 775 W/m² | - |
| 1777745213 | 17.22° C | 38% | 1026.1 hPa | 0 mm | - | 748 W/m² | - |
| 1777744910 | 15.56° C | 42% | 1026.2 hPa | 0 mm | - | 742 W/m² | - |
| 1777744609 | 15.56° C | 43% | 1026.2 hPa | 0 mm | - | 735 W/m² | - |
| 1777744305 | 15.56° C | 42% | 1026.2 hPa | 0 mm | - | 714 W/m² | - |
| 1777744003 | 15° C | 43% | 1026.4 hPa | 0 mm | - | 721 W/m² | - |
| 1777743698 | 14.44° C | 45% | 1026.4 hPa | 0 mm | - | 644 W/m² | - |
| 1777743396 | 15° C | 45% | 1026.3 hPa | 0 mm | - | 678 W/m² | - |
| 1777743094 | 13.89° C | 47% | 1026.3 hPa | 0 mm | - | 710 W/m² | - |
| 1777742791 | 13.89° C | 47% | 1026.4 hPa | 0 mm | - | 720 W/m² | - |
| 1777742488 | 13.89° C | 48% | 1026.5 hPa | 0 mm | - | 723 W/m² | - |
* Rain latest hour (hover to see other rain measurements)
** Current wind speed in m/s (hover to see current wind gust speed)